sensor_id;sensor_type;location;lat;lon;timestamp;temperature;humidity
25582;DHT22;13462;50.764;4.332;2023-04-30T00:00:03;7.60;99.90
25582;DHT22;13462;50.764;4.332;2023-04-30T00:02:32;7.60;99.90
25582;DHT22;13462;50.764;4.332;2023-04-30T00:04:58;7.70;99.90
25582;DHT22;13462;50.764;4.332;2023-04-30T00:07:23;7.70;99.90
25582;DHT22;13462;50.764;4.332;2023-04-30T00:09:49;7.70;99.90
25582;DHT22;13462;50.764;4.332;2023-04-30T00:12:15;7.70;99.90
25582;DHT22;13462;50.764;4.332;2023-04-30T00:14:41;7.70;99.90
25582;DHT22;13462;50.764;4.332;2023-04-30T00:17:06;7.60;99.90
25582;DHT22;13462;50.764;4.332;2023-04-30T00:19:32;7.70;99.90
25582;DHT22;13462;50.764;4.332;2023-04-30T00:21:57;7.60;99.90
25582;DHT22;13462;50.764;4.332;2023-04-30T00:24:26;7.60;99.90
25582;DHT22;13462;50.764;4.332;2023-04-30T00:26:51;7.70;99.90
25582;DHT22;13462;50.764;4.332;2023-04-30T00:29:17;7.70;99.90
25582;DHT22;13462;50.764;4.332;2023-04-30T00:31:42;7.70;99.90
25582;DHT22;13462;50.764;4.332;2023-04-30T00:34:08;7.70;99.90
25582;DHT22;13462;50.764;4.332;2023-04-30T00:36:34;7.70;99.90
25582;DHT22;13462;50.764;4.332;2023-04-30T00:38:59;7.70;99.90
25582;DHT22;13462;50.764;4.332;2023-04-30T00:41:25;7.70;99.90
25582;DHT22;13462;50.764;4.332;2023-04-30T00:43:51;7.70;99.90
25582;DHT22;13462;50.764;4.332;2023-04-30T00:46:17;7.70;99.90
25582;DHT22;13462;50.764;4.332;2023-04-30T00:48:42;7.90;99.90
25582;DHT22;13462;50.764;4.332;2023-04-30T00:51:08;7.80;99.90
25582;DHT22;13462;50.764;4.332;2023-04-30T00:53:33;7.90;99.90
25582;DHT22;13462;50.764;4.332;2023-04-30T00:55:59;7.80;99.90
25582;DHT22;13462;50.764;4.332;2023-04-30T00:58:25;7.70;99.90
25582;DHT22;13462;50.764;4.332;2023-04-30T01:00:50;7.80;99.90
25582;DHT22;13462;50.764;4.332;2023-04-30T01:03:16;7.80;99.90
25582;DHT22;13462;50.764;4.332;2023-04-30T01:05:41;7.80;99.90
25582;DHT22;13462;50.764;4.332;2023-04-30T01:08:07;7.90;99.90
25582;DHT22;13462;50.764;4.332;2023-04-30T01:10:36;7.90;99.90
25582;DHT22;13462;50.764;4.332;2023-04-30T01:13:15;8.00;99.90
25582;DHT22;13462;50.764;4.332;2023-04-30T01:15:46;8.00;99.90
25582;DHT22;13462;50.764;4.332;2023-04-30T01:19:19;7.90;99.90
25582;DHT22;13462;50.764;4.332;2023-04-30T01:21:08;7.80;99.90
25582;DHT22;13462;50.764;4.332;2023-04-30T01:26:37;7.70;99.90
25582;DHT22;13462;50.764;4.332;2023-04-30T01:29:07;7.70;99.90
25582;DHT22;13462;50.764;4.332;2023-04-30T01:31:34;7.70;99.90
25582;DHT22;13462;50.764;4.332;2023-04-30T01:34:00;7.70;99.90
25582;DHT22;13462;50.764;4.332;2023-04-30T01:36:33;7.80;99.90
25582;DHT22;13462;50.764;4.332;2023-04-30T01:41:33;7.90;99.90
25582;DHT22;13462;50.764;4.332;2023-04-30T01:46:31;7.90;99.90
25582;DHT22;13462;50.764;4.332;2023-04-30T01:51:41;7.90;99.90
25582;DHT22;13462;50.764;4.332;2023-04-30T01:54:29;7.90;99.90
25582;DHT22;13462;50.764;4.332;2023-04-30T01:57:06;7.90;99.90
25582;DHT22;13462;50.764;4.332;2023-04-30T01:59:34;8.00;99.90
25582;DHT22;13462;50.764;4.332;2023-04-30T02:02:00;8.10;99.90
25582;DHT22;13462;50.764;4.332;2023-04-30T02:04:25;8.10;99.90
25582;DHT22;13462;50.764;4.332;2023-04-30T02:06:51;8.00;99.90
25582;DHT22;13462;50.764;4.332;2023-04-30T02:09:16;8.00;99.90
25582;DHT22;13462;50.764;4.332;2023-04-30T02:11:42;8.10;99.90
25582;DHT22;13462;50.764;4.332;2023-04-30T02:14:08;8.10;99.90
25582;DHT22;13462;50.764;4.332;2023-04-30T02:16:34;8.20;99.90
25582;DHT22;13462;50.764;4.332;2023-04-30T02:19:00;8.20;99.90
25582;DHT22;13462;50.764;4.332;2023-04-30T02:21:25;8.20;99.90
25582;DHT22;13462;50.764;4.332;2023-04-30T02:23:51;8.20;99.90
25582;DHT22;13462;50.764;4.332;2023-04-30T02:26:17;8.10;99.90
25582;DHT22;13462;50.764;4.332;2023-04-30T02:28:42;8.00;99.90
25582;DHT22;13462;50.764;4.332;2023-04-30T02:31:08;8.00;99.90
25582;DHT22;13462;50.764;4.332;2023-04-30T02:33:33;8.00;99.90
25582;DHT22;13462;50.764;4.332;2023-04-30T02:35:59;8.00;99.90
25582;DHT22;13462;50.764;4.332;2023-04-30T02:38:25;7.90;99.90
25582;DHT22;13462;50.764;4.332;2023-04-30T02:40:50;7.80;99.90
25582;DHT22;13462;50.764;4.332;2023-04-30T02:43:16;7.80;99.90
25582;DHT22;13462;50.764;4.332;2023-04-30T02:45:41;7.90;99.90
25582;DHT22;13462;50.764;4.332;2023-04-30T02:48:07;8.10;99.90
25582;DHT22;13462;50.764;4.332;2023-04-30T02:50:32;8.10;99.90
25582;DHT22;13462;50.764;4.332;2023-04-30T02:52:58;8.10;99.90
25582;DHT22;13462;50.764;4.332;2023-04-30T02:55:24;8.00;99.90
25582;DHT22;13462;50.764;4.332;2023-04-30T02:57:49;8.00;99.90
25582;DHT22;13462;50.764;4.332;2023-04-30T03:00:15;7.90;99.90
25582;DHT22;13462;50.764;4.332;2023-04-30T03:02:41;7.90;99.90
25582;DHT22;13462;50.764;4.332;2023-04-30T03:05:07;7.90;99.90
25582;DHT22;13462;50.764;4.332;2023-04-30T03:07:32;8.00;99.90
25582;DHT22;13462;50.764;4.332;2023-04-30T03:09:58;8.00;99.90
25582;DHT22;13462;50.764;4.332;2023-04-30T03:12:23;8.10;99.90
25582;DHT22;13462;50.764;4.332;2023-04-30T03:14:49;8.10;99.90
25582;DHT22;13462;50.764;4.332;2023-04-30T03:17:14;8.10;99.90
25582;DHT22;13462;50.764;4.332;2023-04-30T03:19:40;8.10;99.90
25582;DHT22;13462;50.764;4.332;2023-04-30T03:22:06;8.00;99.90
25582;DHT22;13462;50.764;4.332;2023-04-30T03:24:31;7.80;99.90
25582;DHT22;13462;50.764;4.332;2023-04-30T03:26:57;7.90;99.90
25582;DHT22;13462;50.764;4.332;2023-04-30T03:29:22;7.90;99.90
25582;DHT22;13462;50.764;4.332;2023-04-30T03:31:48;7.90;99.90
25582;DHT22;13462;50.764;4.332;2023-04-30T03:34:13;7.80;99.90
25582;DHT22;13462;50.764;4.332;2023-04-30T03:36:39;7.80;99.90
25582;DHT22;13462;50.764;4.332;2023-04-30T03:39:04;7.80;99.90
25582;DHT22;13462;50.764;4.332;2023-04-30T03:41:30;7.80;99.90
25582;DHT22;13462;50.764;4.332;2023-04-30T03:43:55;7.80;99.90
25582;DHT22;13462;50.764;4.332;2023-04-30T03:46:21;7.90;99.90
25582;DHT22;13462;50.764;4.332;2023-04-30T03:48:46;7.80;99.90
25582;DHT22;13462;50.764;4.332;2023-04-30T03:51:12;7.70;99.90
25582;DHT22;13462;50.764;4.332;2023-04-30T03:53:37;7.80;99.90
25582;DHT22;13462;50.764;4.332;2023-04-30T03:56:03;7.80;99.90
25582;DHT22;13462;50.764;4.332;2023-04-30T03:58:29;7.90;99.90
25582;DHT22;13462;50.764;4.332;2023-04-30T04:00:54;8.00;99.90
25582;DHT22;13462;50.764;4.332;2023-04-30T04:03:20;8.00;99.90
25582;DHT22;13462;50.764;4.332;2023-04-30T04:05:46;8.00;99.90
25582;DHT22;13462;50.764;4.332;2023-04-30T04:08:11;8.00;99.90
25582;DHT22;13462;50.764;4.332;2023-04-30T04:10:37;8.10;99.90
25582;DHT22;13462;50.764;4.332;2023-04-30T04:13:04;8.10;99.90
25582;DHT22;13462;50.764;4.332;2023-04-30T04:15:30;8.00;99.90
25582;DHT22;13462;50.764;4.332;2023-04-30T04:17:56;8.00;99.90
25582;DHT22;13462;50.764;4.332;2023-04-30T04:20:21;8.00;99.90
25582;DHT22;13462;50.764;4.332;2023-04-30T04:22:47;8.10;99.90
25582;DHT22;13462;50.764;4.332;2023-04-30T04:25:12;8.10;99.90
25582;DHT22;13462;50.764;4.332;2023-04-30T04:27:38;8.00;99.90
25582;DHT22;13462;50.764;4.332;2023-04-30T04:30:04;8.00;99.90
25582;DHT22;13462;50.764;4.332;2023-04-30T04:32:29;8.00;99.90
25582;DHT22;13462;50.764;4.332;2023-04-30T04:34:57;8.10;99.90
25582;DHT22;13462;50.764;4.332;2023-04-30T04:37:22;8.10;99.90
25582;DHT22;13462;50.764;4.332;2023-04-30T04:39:48;8.00;99.90
25582;DHT22;13462;50.764;4.332;2023-04-30T04:42:14;8.00;99.90
25582;DHT22;13462;50.764;4.332;2023-04-30T04:44:40;7.90;99.90
25582;DHT22;13462;50.764;4.332;2023-04-30T04:47:06;8.00;99.90
25582;DHT22;13462;50.764;4.332;2023-04-30T04:49:32;8.00;99.90
25582;DHT22;13462;50.764;4.332;2023-04-30T04:51:58;8.00;99.90
25582;DHT22;13462;50.764;4.332;2023-04-30T04:54:23;8.10;99.90
25582;DHT22;13462;50.764;4.332;2023-04-30T04:56:49;8.20;99.90
25582;DHT22;13462;50.764;4.332;2023-04-30T04:59:16;8.20;99.90
25582;DHT22;13462;50.764;4.332;2023-04-30T05:01:41;8.20;99.90
25582;DHT22;13462;50.764;4.332;2023-04-30T05:04:07;8.30;99.90
25582;DHT22;13462;50.764;4.332;2023-04-30T05:06:33;8.40;99.90
25582;DHT22;13462;50.764;4.332;2023-04-30T05:08:59;8.30;99.90
25582;DHT22;13462;50.764;4.332;2023-04-30T05:11:25;8.40;99.90
25582;DHT22;13462;50.764;4.332;2023-04-30T05:13:50;8.60;99.90
25582;DHT22;13462;50.764;4.332;2023-04-30T05:16:15;8.70;99.90
25582;DHT22;13462;50.764;4.332;2023-04-30T05:18:41;8.80;99.90
25582;DHT22;13462;50.764;4.332;2023-04-30T05:21:07;8.90;99.90
25582;DHT22;13462;50.764;4.332;2023-04-30T05:23:32;9.00;99.90
25582;DHT22;13462;50.764;4.332;2023-04-30T05:25:57;9.20;99.90
25582;DHT22;13462;50.764;4.332;2023-04-30T05:28:23;9.50;99.90
25582;DHT22;13462;50.764;4.332;2023-04-30T05:30:48;9.70;99.90
25582;DHT22;13462;50.764;4.332;2023-04-30T05:33:14;9.80;99.90
25582;DHT22;13462;50.764;4.332;2023-04-30T05:35:40;9.90;99.90
25582;DHT22;13462;50.764;4.332;2023-04-30T05:38:05;10.10;99.90
25582;DHT22;13462;50.764;4.332;2023-04-30T05:40:31;10.50;99.90
25582;DHT22;13462;50.764;4.332;2023-04-30T05:42:56;10.80;99.90
25582;DHT22;13462;50.764;4.332;2023-04-30T05:45:22;11.00;99.90
25582;DHT22;13462;50.764;4.332;2023-04-30T05:47:47;11.00;99.90
25582;DHT22;13462;50.764;4.332;2023-04-30T05:50:13;11.10;99.90
25582;DHT22;13462;50.764;4.332;2023-04-30T05:52:38;10.90;99.90
25582;DHT22;13462;50.764;4.332;2023-04-30T05:55:04;11.00;99.90
25582;DHT22;13462;50.764;4.332;2023-04-30T05:57:30;11.00;99.90
25582;DHT22;13462;50.764;4.332;2023-04-30T05:59:55;11.20;99.90
25582;DHT22;13462;50.764;4.332;2023-04-30T06:02:21;11.40;99.90
25582;DHT22;13462;50.764;4.332;2023-04-30T06:04:47;11.70;99.90
25582;DHT22;13462;50.764;4.332;2023-04-30T06:07:12;12.10;99.90
25582;DHT22;13462;50.764;4.332;2023-04-30T06:09:38;13.00;99.90
25582;DHT22;13462;50.764;4.332;2023-04-30T06:12:03;14.10;99.90
25582;DHT22;13462;50.764;4.332;2023-04-30T06:14:29;14.90;99.90
25582;DHT22;13462;50.764;4.332;2023-04-30T06:16:55;15.00;99.90
25582;DHT22;13462;50.764;4.332;2023-04-30T06:19:20;15.60;99.90
25582;DHT22;13462;50.764;4.332;2023-04-30T06:21:46;16.10;99.90
25582;DHT22;13462;50.764;4.332;2023-04-30T06:24:11;17.00;99.90
25582;DHT22;13462;50.764;4.332;2023-04-30T06:26:37;17.70;99.90
25582;DHT22;13462;50.764;4.332;2023-04-30T06:29:02;18.30;99.90
25582;DHT22;13462;50.764;4.332;2023-04-30T06:31:28;18.70;99.90
25582;DHT22;13462;50.764;4.332;2023-04-30T06:33:53;18.50;99.90
25582;DHT22;13462;50.764;4.332;2023-04-30T06:36:19;19.00;99.90
25582;DHT22;13462;50.764;4.332;2023-04-30T06:38:45;19.00;99.90
25582;DHT22;13462;50.764;4.332;2023-04-30T06:41:11;18.00;99.90
25582;DHT22;13462;50.764;4.332;2023-04-30T06:43:36;17.90;99.90
25582;DHT22;13462;50.764;4.332;2023-04-30T06:46:02;18.20;99.90
25582;DHT22;13462;50.764;4.332;2023-04-30T06:48:28;17.90;99.90
25582;DHT22;13462;50.764;4.332;2023-04-30T06:50:53;18.10;99.90
25582;DHT22;13462;50.764;4.332;2023-04-30T06:53:19;18.50;99.90
25582;DHT22;13462;50.764;4.332;2023-04-30T06:55:45;18.50;99.90
25582;DHT22;13462;50.764;4.332;2023-04-30T06:58:11;18.50;99.90
25582;DHT22;13462;50.764;4.332;2023-04-30T07:00:36;17.90;99.90
25582;DHT22;13462;50.764;4.332;2023-04-30T07:03:02;17.90;99.90
25582;DHT22;13462;50.764;4.332;2023-04-30T07:05:31;17.80;99.90
25582;DHT22;13462;50.764;4.332;2023-04-30T07:08:00;17.80;99.90
25582;DHT22;13462;50.764;4.332;2023-04-30T07:10:26;18.40;99.90
25582;DHT22;13462;50.764;4.332;2023-04-30T07:12:51;18.70;99.90
25582;DHT22;13462;50.764;4.332;2023-04-30T07:15:17;19.40;99.90
25582;DHT22;13462;50.764;4.332;2023-04-30T07:17:42;19.20;99.80
25582;DHT22;13462;50.764;4.332;2023-04-30T07:20:08;19.40;99.80
25582;DHT22;13462;50.764;4.332;2023-04-30T07:22:34;19.70;99.00
25582;DHT22;13462;50.764;4.332;2023-04-30T07:25:00;19.70;98.20
25582;DHT22;13462;50.764;4.332;2023-04-30T07:27:26;19.40;98.80
25582;DHT22;13462;50.764;4.332;2023-04-30T07:29:52;19.40;99.10
25582;DHT22;13462;50.764;4.332;2023-04-30T07:32:18;20.00;99.20
25582;DHT22;13462;50.764;4.332;2023-04-30T07:34:44;21.00;97.80
25582;DHT22;13462;50.764;4.332;2023-04-30T07:37:10;21.40;96.70
25582;DHT22;13462;50.764;4.332;2023-04-30T07:39:35;21.00;95.80
25582;DHT22;13462;50.764;4.332;2023-04-30T07:42:02;20.50;95.80
25582;DHT22;13462;50.764;4.332;2023-04-30T07:44:28;19.80;96.60
25582;DHT22;13462;50.764;4.332;2023-04-30T07:46:53;20.20;97.50
25582;DHT22;13462;50.764;4.332;2023-04-30T07:49:19;21.40;95.80
25582;DHT22;13462;50.764;4.332;2023-04-30T07:51:45;23.10;93.90
25582;DHT22;13462;50.764;4.332;2023-04-30T07:54:11;24.00;90.60
25582;DHT22;13462;50.764;4.332;2023-04-30T07:56:36;25.20;87.20
25582;DHT22;13462;50.764;4.332;2023-04-30T07:59:02;24.70;84.50
25582;DHT22;13462;50.764;4.332;2023-04-30T08:01:27;24.60;84.70
25582;DHT22;13462;50.764;4.332;2023-04-30T08:03:53;24.00;83.70
25582;DHT22;13462;50.764;4.332;2023-04-30T08:06:18;24.50;82.90
25582;DHT22;13462;50.764;4.332;2023-04-30T08:08:44;24.60;81.00
25582;DHT22;13462;50.764;4.332;2023-04-30T08:11:10;25.00;80.50
25582;DHT22;13462;50.764;4.332;2023-04-30T08:13:35;26.00;78.10
25582;DHT22;13462;50.764;4.332;2023-04-30T08:16:01;27.10;77.10
25582;DHT22;13462;50.764;4.332;2023-04-30T08:18:26;27.60;76.40
25582;DHT22;13462;50.764;4.332;2023-04-30T08:20:52;28.10;70.00
25582;DHT22;13462;50.764;4.332;2023-04-30T08:23:17;27.90;68.40
25582;DHT22;13462;50.764;4.332;2023-04-30T08:25:43;27.20;69.40
25582;DHT22;13462;50.764;4.332;2023-04-30T08:28:08;26.50;68.40
25582;DHT22;13462;50.764;4.332;2023-04-30T08:30:34;26.30;71.60
25582;DHT22;13462;50.764;4.332;2023-04-30T08:32:59;26.40;69.30
25582;DHT22;13462;50.764;4.332;2023-04-30T08:35:25;25.50;70.80
25582;DHT22;13462;50.764;4.332;2023-04-30T08:37:50;26.10;71.70
25582;DHT22;13462;50.764;4.332;2023-04-30T08:40:17;26.60;70.30
25582;DHT22;13462;50.764;4.332;2023-04-30T08:42:44;27.20;68.80
25582;DHT22;13462;50.764;4.332;2023-04-30T08:45:10;27.80;68.20
25582;DHT22;13462;50.764;4.332;2023-04-30T08:47:37;28.40;66.70
25582;DHT22;13462;50.764;4.332;2023-04-30T08:50:03;28.80;63.30
25582;DHT22;13462;50.764;4.332;2023-04-30T08:52:29;28.30;63.20
25582;DHT22;13462;50.764;4.332;2023-04-30T08:54:57;29.10;63.20
25582;DHT22;13462;50.764;4.332;2023-04-30T08:57:23;29.40;62.40
25582;DHT22;13462;50.764;4.332;2023-04-30T08:59:48;30.40;60.40
25582;DHT22;13462;50.764;4.332;2023-04-30T09:02:14;30.20;57.20
25582;DHT22;13462;50.764;4.332;2023-04-30T09:04:39;30.00;57.80
25582;DHT22;13462;50.764;4.332;2023-04-30T09:07:05;30.10;57.40
25582;DHT22;13462;50.764;4.332;2023-04-30T09:09:36;28.80;57.80
25582;DHT22;13462;50.764;4.332;2023-04-30T09:12:15;28.10;57.70
25582;DHT22;13462;50.764;4.332;2023-04-30T09:14:57;27.40;59.00
25582;DHT22;13462;50.764;4.332;2023-04-30T09:17:24;27.40;59.80
25582;DHT22;13462;50.764;4.332;2023-04-30T09:19:49;27.70;58.20
25582;DHT22;13462;50.764;4.332;2023-04-30T09:22:22;27.60;58.50
25582;DHT22;13462;50.764;4.332;2023-04-30T09:24:48;27.40;58.50
25582;DHT22;13462;50.764;4.332;2023-04-30T09:27:15;27.80;57.50
25582;DHT22;13462;50.764;4.332;2023-04-30T09:29:43;27.50;57.10
25582;DHT22;13462;50.764;4.332;2023-04-30T09:32:09;27.90;58.30
25582;DHT22;13462;50.764;4.332;2023-04-30T09:34:36;28.00;56.10
25582;DHT22;13462;50.764;4.332;2023-04-30T09:37:01;27.90;57.20
25582;DHT22;13462;50.764;4.332;2023-04-30T09:39:28;27.30;58.20
25582;DHT22;13462;50.764;4.332;2023-04-30T09:42:05;27.40;58.70
25582;DHT22;13462;50.764;4.332;2023-04-30T09:44:31;27.20;57.00
25582;DHT22;13462;50.764;4.332;2023-04-30T09:47:00;26.90;57.40
25582;DHT22;13462;50.764;4.332;2023-04-30T09:49:25;26.40;59.50
25582;DHT22;13462;50.764;4.332;2023-04-30T09:51:58;26.10;59.50
25582;DHT22;13462;50.764;4.332;2023-04-30T09:54:24;26.80;57.80
25582;DHT22;13462;50.764;4.332;2023-04-30T09:56:52;26.80;57.50
25582;DHT22;13462;50.764;4.332;2023-04-30T09:59:19;27.00;57.20
25582;DHT22;13462;50.764;4.332;2023-04-30T10:01:45;27.80;56.00
25582;DHT22;13462;50.764;4.332;2023-04-30T10:04:11;28.00;55.30
25582;DHT22;13462;50.764;4.332;2023-04-30T10:06:37;28.00;56.20
25582;DHT22;13462;50.764;4.332;2023-04-30T10:09:03;27.50;55.00
25582;DHT22;13462;50.764;4.332;2023-04-30T10:11:30;28.20;54.50
25582;DHT22;13462;50.764;4.332;2023-04-30T10:13:59;28.70;56.30
25582;DHT22;13462;50.764;4.332;2023-04-30T10:19:01;29.50;51.00
25582;DHT22;13462;50.764;4.332;2023-04-30T10:21:28;29.80;50.80
25582;DHT22;13462;50.764;4.332;2023-04-30T10:23:54;29.80;49.70
25582;DHT22;13462;50.764;4.332;2023-04-30T10:26:20;29.20;49.50
25582;DHT22;13462;50.764;4.332;2023-04-30T10:28:47;29.10;50.30
25582;DHT22;13462;50.764;4.332;2023-04-30T10:31:14;29.00;50.70
25582;DHT22;13462;50.764;4.332;2023-04-30T10:33:43;29.40;51.60
25582;DHT22;13462;50.764;4.332;2023-04-30T10:36:16;29.60;49.70
25582;DHT22;13462;50.764;4.332;2023-04-30T10:38:42;29.50;48.10
25582;DHT22;13462;50.764;4.332;2023-04-30T10:41:08;29.70;48.80
25582;DHT22;13462;50.764;4.332;2023-04-30T10:43:34;29.50;50.10
25582;DHT22;13462;50.764;4.332;2023-04-30T10:46:00;29.60;48.60
25582;DHT22;13462;50.764;4.332;2023-04-30T10:48:26;29.90;49.20
25582;DHT22;13462;50.764;4.332;2023-04-30T10:50:56;29.50;48.70
25582;DHT22;13462;50.764;4.332;2023-04-30T10:53:21;28.60;50.50
25582;DHT22;13462;50.764;4.332;2023-04-30T10:55:53;28.10;52.80
25582;DHT22;13462;50.764;4.332;2023-04-30T11:00:50;27.70;54.20
25582;DHT22;13462;50.764;4.332;2023-04-30T11:03:16;27.90;55.10
25582;DHT22;13462;50.764;4.332;2023-04-30T11:05:41;29.90;50.00
25582;DHT22;13462;50.764;4.332;2023-04-30T11:08:09;29.70;48.80
25582;DHT22;13462;50.764;4.332;2023-04-30T11:10:35;28.40;50.40
25582;DHT22;13462;50.764;4.332;2023-04-30T11:13:04;28.90;51.70
25582;DHT22;13462;50.764;4.332;2023-04-30T11:15:32;29.20;52.00
25582;DHT22;13462;50.764;4.332;2023-04-30T11:17:58;29.20;52.90
25582;DHT22;13462;50.764;4.332;2023-04-30T11:20:24;28.90;50.80
25582;DHT22;13462;50.764;4.332;2023-04-30T11:25:48;28.10;50.70
25582;DHT22;13462;50.764;4.332;2023-04-30T11:28:18;27.70;52.50
25582;DHT22;13462;50.764;4.332;2023-04-30T11:30:50;27.20;52.60
25582;DHT22;13462;50.764;4.332;2023-04-30T11:33:16;27.10;53.10
25582;DHT22;13462;50.764;4.332;2023-04-30T11:35:42;27.20;55.60
25582;DHT22;13462;50.764;4.332;2023-04-30T11:38:08;27.40;54.40
25582;DHT22;13462;50.764;4.332;2023-04-30T11:40:34;28.00;54.20
25582;DHT22;13462;50.764;4.332;2023-04-30T11:42:59;27.90;52.30
25582;DHT22;13462;50.764;4.332;2023-04-30T11:45:25;27.90;55.10
25582;DHT22;13462;50.764;4.332;2023-04-30T11:47:53;27.30;54.30
25582;DHT22;13462;50.764;4.332;2023-04-30T11:50:19;27.70;58.30
25582;DHT22;13462;50.764;4.332;2023-04-30T11:52:51;28.30;55.10
25582;DHT22;13462;50.764;4.332;2023-04-30T11:55:24;28.50;52.30
25582;DHT22;13462;50.764;4.332;2023-04-30T11:57:51;28.00;52.60
25582;DHT22;13462;50.764;4.332;2023-04-30T12:00:18;28.50;53.90
25582;DHT22;13462;50.764;4.332;2023-04-30T12:02:45;28.40;53.40
25582;DHT22;13462;50.764;4.332;2023-04-30T12:05:21;27.70;53.00
25582;DHT22;13462;50.764;4.332;2023-04-30T12:07:47;27.00;53.30
25582;DHT22;13462;50.764;4.332;2023-04-30T12:10:13;26.30;54.50
25582;DHT22;13462;50.764;4.332;2023-04-30T12:12:39;25.90;55.30
25582;DHT22;13462;50.764;4.332;2023-04-30T12:15:37;25.90;56.40
25582;DHT22;13462;50.764;4.332;2023-04-30T12:17:57;25.00;58.20
25582;DHT22;13462;50.764;4.332;2023-04-30T12:20:27;24.80;57.00
25582;DHT22;13462;50.764;4.332;2023-04-30T12:22:53;24.30;60.60
25582;DHT22;13462;50.764;4.332;2023-04-30T12:25:20;24.90;59.30
25582;DHT22;13462;50.764;4.332;2023-04-30T12:27:51;25.10;57.20
25582;DHT22;13462;50.764;4.332;2023-04-30T12:30:21;25.30;57.70
25582;DHT22;13462;50.764;4.332;2023-04-30T12:32:48;25.60;56.50
25582;DHT22;13462;50.764;4.332;2023-04-30T12:35:15;26.00;57.10
25582;DHT22;13462;50.764;4.332;2023-04-30T12:37:44;25.70;56.60
25582;DHT22;13462;50.764;4.332;2023-04-30T12:40:13;25.50;55.70
25582;DHT22;13462;50.764;4.332;2023-04-30T12:42:42;25.20;56.90
25582;DHT22;13462;50.764;4.332;2023-04-30T12:45:08;24.80;59.60
25582;DHT22;13462;50.764;4.332;2023-04-30T12:47:37;24.90;56.50
25582;DHT22;13462;50.764;4.332;2023-04-30T12:50:06;24.90;58.20
25582;DHT22;13462;50.764;4.332;2023-04-30T12:52:32;24.80;56.70
25582;DHT22;13462;50.764;4.332;2023-04-30T12:55:12;24.30;56.00
25582;DHT22;13462;50.764;4.332;2023-04-30T12:57:38;25.00;57.50
25582;DHT22;13462;50.764;4.332;2023-04-30T13:00:03;25.60;54.10
25582;DHT22;13462;50.764;4.332;2023-04-30T13:02:30;26.10;54.10
25582;DHT22;13462;50.764;4.332;2023-04-30T13:04:56;26.40;51.40
25582;DHT22;13462;50.764;4.332;2023-04-30T13:07:21;26.50;53.50
25582;DHT22;13462;50.764;4.332;2023-04-30T13:09:47;26.30;53.40
25582;DHT22;13462;50.764;4.332;2023-04-30T13:12:12;26.50;54.90
25582;DHT22;13462;50.764;4.332;2023-04-30T13:14:39;27.00;53.10
25582;DHT22;13462;50.764;4.332;2023-04-30T13:17:04;26.90;54.10
25582;DHT22;13462;50.764;4.332;2023-04-30T13:19:31;27.00;52.70
25582;DHT22;13462;50.764;4.332;2023-04-30T13:21:57;27.00;51.30
25582;DHT22;13462;50.764;4.332;2023-04-30T13:24:23;26.70;52.80
25582;DHT22;13462;50.764;4.332;2023-04-30T13:26:49;26.40;53.00
25582;DHT22;13462;50.764;4.332;2023-04-30T13:29:14;25.90;53.30
25582;DHT22;13462;50.764;4.332;2023-04-30T13:31:40;25.70;54.20
25582;DHT22;13462;50.764;4.332;2023-04-30T13:34:07;25.50;53.50
25582;DHT22;13462;50.764;4.332;2023-04-30T13:36:33;25.60;54.20
25582;DHT22;13462;50.764;4.332;2023-04-30T13:38:58;25.20;53.80
25582;DHT22;13462;50.764;4.332;2023-04-30T13:41:24;24.90;54.90
25582;DHT22;13462;50.764;4.332;2023-04-30T13:43:50;24.60;54.60
25582;DHT22;13462;50.764;4.332;2023-04-30T13:46:15;24.60;56.50
25582;DHT22;13462;50.764;4.332;2023-04-30T13:48:41;24.90;55.40
25582;DHT22;13462;50.764;4.332;2023-04-30T13:51:07;24.90;57.40
25582;DHT22;13462;50.764;4.332;2023-04-30T13:53:32;25.10;57.00
25582;DHT22;13462;50.764;4.332;2023-04-30T13:55:58;25.30;56.80
25582;DHT22;13462;50.764;4.332;2023-04-30T13:58:26;25.20;56.10
25582;DHT22;13462;50.764;4.332;2023-04-30T14:00:52;24.70;55.30
25582;DHT22;13462;50.764;4.332;2023-04-30T14:03:17;24.10;56.50
25582;DHT22;13462;50.764;4.332;2023-04-30T14:05:43;23.70;57.00
25582;DHT22;13462;50.764;4.332;2023-04-30T14:08:08;23.50;58.90
25582;DHT22;13462;50.764;4.332;2023-04-30T14:10:34;23.00;59.10
25582;DHT22;13462;50.764;4.332;2023-04-30T14:12:59;22.90;60.10
25582;DHT22;13462;50.764;4.332;2023-04-30T14:15:25;22.80;59.50
25582;DHT22;13462;50.764;4.332;2023-04-30T14:17:51;23.20;60.10
25582;DHT22;13462;50.764;4.332;2023-04-30T14:20:17;23.00;59.90
25582;DHT22;13462;50.764;4.332;2023-04-30T14:22:43;22.90;60.80
25582;DHT22;13462;50.764;4.332;2023-04-30T14:25:08;23.10;59.30
25582;DHT22;13462;50.764;4.332;2023-04-30T14:27:34;23.00;59.00
25582;DHT22;13462;50.764;4.332;2023-04-30T14:30:00;22.90;59.80
25582;DHT22;13462;50.764;4.332;2023-04-30T14:32:25;23.00;58.90
25582;DHT22;13462;50.764;4.332;2023-04-30T14:34:51;22.80;59.60
25582;DHT22;13462;50.764;4.332;2023-04-30T14:37:17;23.00;60.60
25582;DHT22;13462;50.764;4.332;2023-04-30T14:39:42;22.80;59.00
25582;DHT22;13462;50.764;4.332;2023-04-30T14:42:08;22.50;59.80
25582;DHT22;13462;50.764;4.332;2023-04-30T14:44:36;22.40;61.30
25582;DHT22;13462;50.764;4.332;2023-04-30T14:47:02;22.50;59.40
25582;DHT22;13462;50.764;4.332;2023-04-30T14:49:27;22.40;59.60
25582;DHT22;13462;50.764;4.332;2023-04-30T14:51:53;22.40;59.40
25582;DHT22;13462;50.764;4.332;2023-04-30T14:54:18;22.20;60.70
25582;DHT22;13462;50.764;4.332;2023-04-30T14:56:44;22.00;61.10
25582;DHT22;13462;50.764;4.332;2023-04-30T14:59:10;22.00;63.90
25582;DHT22;13462;50.764;4.332;2023-04-30T15:01:36;22.10;66.00
25582;DHT22;13462;50.764;4.332;2023-04-30T15:04:02;22.30;60.40
25582;DHT22;13462;50.764;4.332;2023-04-30T15:06:27;22.40;60.10
25582;DHT22;13462;50.764;4.332;2023-04-30T15:08:53;22.50;64.60
25582;DHT22;13462;50.764;4.332;2023-04-30T15:11:18;22.60;61.80
25582;DHT22;13462;50.764;4.332;2023-04-30T15:13:44;22.60;58.90
25582;DHT22;13462;50.764;4.332;2023-04-30T15:16:10;22.50;58.90
25582;DHT22;13462;50.764;4.332;2023-04-30T15:18:35;22.40;59.10
25582;DHT22;13462;50.764;4.332;2023-04-30T15:21:01;22.30;61.80
25582;DHT22;13462;50.764;4.332;2023-04-30T15:23:27;22.10;60.50
25582;DHT22;13462;50.764;4.332;2023-04-30T15:25:52;22.20;63.60
25582;DHT22;13462;50.764;4.332;2023-04-30T15:28:18;22.30;61.80
25582;DHT22;13462;50.764;4.332;2023-04-30T15:30:43;22.30;60.70
25582;DHT22;13462;50.764;4.332;2023-04-30T15:33:09;22.00;60.80
25582;DHT22;13462;50.764;4.332;2023-04-30T15:35:36;22.10;63.80
25582;DHT22;13462;50.764;4.332;2023-04-30T15:38:02;22.40;62.60
25582;DHT22;13462;50.764;4.332;2023-04-30T15:40:27;22.60;60.80
25582;DHT22;13462;50.764;4.332;2023-04-30T15:42:53;22.20;60.30
25582;DHT22;13462;50.764;4.332;2023-04-30T15:45:18;22.10;61.70
25582;DHT22;13462;50.764;4.332;2023-04-30T15:47:44;22.00;61.90